Time;durP1;ratioP1;P1;durP2;ratioP2;P2;SDS_P1;SDS_P2;PMS_P1;PMS_P2;Temp;Humidity;BMP_temperature;BMP_pressure;BME280_temperature;BME280_humidity;BME280_pressure;Samples;Min_cycle;Max_cycle;Signal;HPM_P1;HPM_P2
2023/07/05 00:00:10;;;;;;;;;;;16.70;99.90;;;;;;4995456;28;19941;-44
2023/07/05 00:02:36;;;;;;;;;;;16.60;99.90;;;;;;4984936;28;19980;-44
2023/07/05 00:05:03;;;;;;;;;;;16.60;99.90;;;;;;4971483;28;19933;-44
2023/07/05 00:07:30;;;;;;;;;;;16.60;99.90;;;;;;4992714;28;20448;-44
2023/07/05 00:09:57;;;;;;;;;;;16.60;99.90;;;;;;4972802;28;20166;-44
2023/07/05 00:12:25;;;;;;;;;;;16.60;99.90;;;;;;4973876;28;19981;-42
2023/07/05 00:14:51;;;;;;;;;;;16.50;99.90;;;;;;4988160;28;19926;-43
2023/07/05 00:17:18;;;;;;;;;;;16.50;99.90;;;;;;4981177;28;19980;-45
2023/07/05 00:19:49;;;;;;;;;;;16.50;99.90;;;;;;4992328;28;19934;-44
2023/07/05 00:22:16;;;;;;;;;;;16.40;99.90;;;;;;4992708;28;19930;-44
2023/07/05 00:24:43;;;;;;;;;;;16.40;99.90;;;;;;4983548;28;19936;-44
2023/07/05 00:27:09;;;;;;;;;;;16.40;99.90;;;;;;4974695;28;20008;-44
2023/07/05 00:29:37;;;;;;;;;;;16.30;99.90;;;;;;4995322;28;19930;-44
2023/07/05 00:32:04;;;;;;;;;;;16.40;99.90;;;;;;4963549;28;20032;-44
2023/07/05 00:34:31;;;;;;;;;;;16.30;99.90;;;;;;4993065;28;20066;-44
2023/07/05 00:36:58;;;;;;;;;;;16.30;99.90;;;;;;4992926;28;19929;-44
2023/07/05 00:39:26;;;;;;;;;;;16.20;99.90;;;;;;4962963;28;19980;-43
2023/07/05 00:41:53;;;;;;;;;;;16.20;99.90;;;;;;4983012;28;19930;-44
2023/07/05 00:44:20;;;;;;;;;;;16.30;99.90;;;;;;4974989;28;19980;-44
2023/07/05 00:46:48;;;;;;;;;;;16.20;99.90;;;;;;4992657;28;19925;-43
2023/07/05 00:49:15;;;;;;;;;;;16.20;99.90;;;;;;4992625;28;19980;-43
2023/07/05 00:51:43;;;;;;;;;;;16.20;99.90;;;;;;4971875;28;19926;-43
2023/07/05 00:54:10;;;;;;;;;;;16.10;99.90;;;;;;4991529;28;19933;-43
2023/07/05 00:56:37;;;;;;;;;;;16.10;99.90;;;;;;4987332;28;20305;-43
2023/07/05 00:59:04;;;;;;;;;;;16.10;99.90;;;;;;4973745;28;20228;-43
2023/07/05 01:01:30;;;;;;;;;;;16.00;99.90;;;;;;4973944;28;19925;-44
2023/07/05 01:03:59;;;;;;;;;;;16.00;99.90;;;;;;4993167;28;19980;-44
2023/07/05 01:06:27;;;;;;;;;;;16.00;99.90;;;;;;4991388;28;19926;-43
2023/07/05 01:08:53;;;;;;;;;;;16.00;99.90;;;;;;4999475;28;19929;-44
2023/07/05 01:11:22;;;;;;;;;;;16.00;99.90;;;;;;4987963;28;19926;-43
2023/07/05 01:13:52;;;;;;;;;;;16.00;99.90;;;;;;4991677;28;19933;-43
2023/07/05 01:16:24;;;;;;;;;;;16.00;99.90;;;;;;4975299;28;19933;-44
2023/07/05 01:18:53;;;;;;;;;;;16.00;99.90;;;;;;4991005;28;20350;-44
2023/07/05 01:21:24;;;;;;;;;;;16.00;99.90;;;;;;4968732;28;19926;-43
2023/07/05 01:24:14;;;;;;;;;;;15.90;99.90;;;;;;4971329;28;19925;-42
2023/07/05 01:26:56;;;;;;;;;;;15.90;99.90;;;;;;4989003;28;19965;-43
2023/07/05 01:29:42;;;;;;;;;;;15.90;99.90;;;;;;4944240;28;19933;-43
2023/07/05 01:32:11;;;;;;;;;;;15.90;99.90;;;;;;4988670;28;20346;-43
2023/07/05 01:34:39;;;;;;;;;;;16.00;99.90;;;;;;4973538;28;20338;-42
2023/07/05 01:37:06;;;;;;;;;;;15.90;99.90;;;;;;4992121;28;20366;-43
2023/07/05 01:39:33;;;;;;;;;;;15.90;99.90;;;;;;4960808;28;19932;-41
2023/07/05 01:41:59;;;;;;;;;;;15.90;99.90;;;;;;4983867;28;19980;-41
2023/07/05 01:44:26;;;;;;;;;;;15.90;99.90;;;;;;4974570;28;19953;-40
2023/07/05 01:46:54;;;;;;;;;;;15.90;99.90;;;;;;4990953;28;19933;-43
2023/07/05 01:49:32;;;;;;;;;;;15.90;99.90;;;;;;4975312;28;20000;-42
2023/07/05 01:52:00;;;;;;;;;;;15.90;99.90;;;;;;4973721;28;19926;-43
2023/07/05 01:54:30;;;;;;;;;;;15.80;99.90;;;;;;4991531;28;19933;-43
2023/07/05 01:56:59;;;;;;;;;;;15.80;99.90;;;;;;4974604;28;19973;-42
2023/07/05 01:59:27;;;;;;;;;;;15.70;99.90;;;;;;4968794;28;19926;-42
2023/07/05 02:01:54;;;;;;;;;;;15.70;99.90;;;;;;4983933;28;19929;-43
2023/07/05 02:04:21;;;;;;;;;;;15.70;99.90;;;;;;4990347;28;19932;-43
2023/07/05 02:06:49;;;;;;;;;;;15.70;99.90;;;;;;4986758;28;19977;-43
2023/07/05 02:09:16;;;;;;;;;;;15.60;99.90;;;;;;4990479;28;19937;-43
2023/07/05 02:11:43;;;;;;;;;;;15.60;99.90;;;;;;4999147;28;19926;-43
2023/07/05 02:14:10;;;;;;;;;;;15.50;99.90;;;;;;4973932;28;19980;-43
2023/07/05 02:16:38;;;;;;;;;;;15.50;99.90;;;;;;5010128;28;19932;-42
2023/07/05 02:19:05;;;;;;;;;;;15.50;99.90;;;;;;4989603;28;20298;-43
2023/07/05 02:21:32;;;;;;;;;;;15.50;99.90;;;;;;4972073;28;19953;-41
2023/07/05 02:24:00;;;;;;;;;;;15.40;99.90;;;;;;4990903;28;19929;-40
2023/07/05 02:26:27;;;;;;;;;;;15.40;99.90;;;;;;4981002;28;19934;-40
2023/07/05 02:28:53;;;;;;;;;;;15.40;99.90;;;;;;4994197;28;20386;-42
2023/07/05 02:31:20;;;;;;;;;;;15.40;99.90;;;;;;4995567;28;19977;-41
2023/07/05 02:33:47;;;;;;;;;;;15.40;99.90;;;;;;4978023;28;20051;-43
2023/07/05 02:36:14;;;;;;;;;;;15.40;99.90;;;;;;4993453;28;19938;-42
2023/07/05 02:38:41;;;;;;;;;;;15.40;99.90;;;;;;4973169;28;19933;-43
2023/07/05 02:41:09;;;;;;;;;;;15.40;99.90;;;;;;4977347;28;19926;-42
2023/07/05 02:43:36;;;;;;;;;;;15.30;99.90;;;;;;4995017;28;19930;-43
2023/07/05 02:46:02;;;;;;;;;;;15.40;99.90;;;;;;4994546;28;19934;-43
2023/07/05 02:48:29;;;;;;;;;;;15.40;99.90;;;;;;4977578;28;19933;-42
2023/07/05 02:50:56;;;;;;;;;;;15.40;99.90;;;;;;4996116;28;20433;-43
2023/07/05 02:53:22;;;;;;;;;;;15.40;99.90;;;;;;4975969;28;19972;-42
2023/07/05 02:55:49;;;;;;;;;;;15.30;99.90;;;;;;4977021;28;20376;-43
2023/07/05 02:58:17;;;;;;;;;;;15.30;99.90;;;;;;4993574;28;19927;-40
2023/07/05 03:00:44;;;;;;;;;;;15.30;99.90;;;;;;4973113;28;19933;-41
2023/07/05 03:03:11;;;;;;;;;;;15.30;99.90;;;;;;4975937;28;19933;-43
2023/07/05 03:05:38;;;;;;;;;;;15.30;99.90;;;;;;4994691;28;19930;-42
2023/07/05 03:08:04;;;;;;;;;;;15.40;99.90;;;;;;4994163;28;19980;-42
2023/07/05 03:10:31;;;;;;;;;;;15.30;99.90;;;;;;4992645;28;20063;-43
2023/07/05 03:12:58;;;;;;;;;;;15.30;99.90;;;;;;4994239;28;20124;-44
2023/07/05 03:15:26;;;;;;;;;;;15.30;99.90;;;;;;4977001;28;19937;-40
2023/07/05 03:17:53;;;;;;;;;;;15.40;99.90;;;;;;4976318;28;19926;-41
2023/07/05 03:20:21;;;;;;;;;;;15.40;99.90;;;;;;4975912;28;19926;-43
2023/07/05 03:22:48;;;;;;;;;;;15.40;99.90;;;;;;4987370;28;19926;-41
2023/07/05 03:25:14;;;;;;;;;;;15.40;99.90;;;;;;4982779;28;19929;-43
2023/07/05 03:27:41;;;;;;;;;;;15.40;99.90;;;;;;4975446;28;19926;-43
2023/07/05 03:30:08;;;;;;;;;;;15.40;99.90;;;;;;4978112;28;19926;-42
2023/07/05 03:32:36;;;;;;;;;;;15.40;99.90;;;;;;4966542;28;20057;-40
2023/07/05 03:35:03;;;;;;;;;;;15.40;99.90;;;;;;4992646;28;19925;-43
2023/07/05 03:37:30;;;;;;;;;;;15.40;99.90;;;;;;4992558;28;19934;-43
2023/07/05 03:39:56;;;;;;;;;;;15.40;99.90;;;;;;4993409;28;20400;-42
2023/07/05 03:42:23;;;;;;;;;;;15.40;99.90;;;;;;4976647;28;20298;-42
2023/07/05 03:44:50;;;;;;;;;;;15.40;99.90;;;;;;4993771;28;19926;-42
2023/07/05 03:47:16;;;;;;;;;;;15.40;99.90;;;;;;4993799;28;19926;-43
2023/07/05 03:49:45;;;;;;;;;;;15.40;99.90;;;;;;5001485;28;19938;-43
2023/07/05 03:52:12;;;;;;;;;;;15.50;99.90;;;;;;4991247;28;19933;-42
2023/07/05 03:54:39;;;;;;;;;;;15.50;99.90;;;;;;4974188;28;19980;-43
2023/07/05 03:57:06;;;;;;;;;;;15.50;99.90;;;;;;4977533;28;19925;-44
2023/07/05 03:59:33;;;;;;;;;;;15.60;99.90;;;;;;4988427;28;20403;-43
2023/07/05 04:01:59;;;;;;;;;;;15.60;99.90;;;;;;4959945;28;19930;-43
2023/07/05 04:04:26;;;;;;;;;;;15.70;99.90;;;;;;4982069;28;19973;-42
2023/07/05 04:06:54;;;;;;;;;;;15.70;99.90;;;;;;4991463;28;19969;-42
2023/07/05 04:09:21;;;;;;;;;;;15.70;99.90;;;;;;4962978;28;19926;-42
2023/07/05 04:11:47;;;;;;;;;;;15.80;99.90;;;;;;4975585;28;19930;-42
2023/07/05 04:14:14;;;;;;;;;;;15.80;99.90;;;;;;4983346;28;19949;-42
2023/07/05 04:16:41;;;;;;;;;;;15.80;99.90;;;;;;4991352;28;19979;-41
2023/07/05 04:19:08;;;;;;;;;;;15.80;99.90;;;;;;4984113;28;20436;-44
2023/07/05 04:21:35;;;;;;;;;;;15.80;99.90;;;;;;4991104;28;19973;-42
2023/07/05 04:24:03;;;;;;;;;;;15.80;99.90;;;;;;4975624;28;19976;-44
2023/07/05 04:26:30;;;;;;;;;;;15.80;99.90;;;;;;4991963;28;19930;-41
2023/07/05 04:28:56;;;;;;;;;;;15.80;99.90;;;;;;4975687;28;19930;-41
2023/07/05 04:31:27;;;;;;;;;;;15.80;99.90;;;;;;4973514;28;19949;-42
2023/07/05 04:33:54;;;;;;;;;;;15.80;99.90;;;;;;4975391;28;19932;-41
2023/07/05 04:36:20;;;;;;;;;;;15.80;99.90;;;;;;4992913;28;19976;-43
2023/07/05 04:38:47;;;;;;;;;;;15.80;99.90;;;;;;4986454;28;19926;-42
2023/07/05 04:41:15;;;;;;;;;;;15.80;99.90;;;;;;4977383;28;19926;-41
2023/07/05 04:43:42;;;;;;;;;;;15.70;99.90;;;;;;4961131;28;19977;-42
2023/07/05 04:46:08;;;;;;;;;;;15.70;99.90;;;;;;4972637;28;20389;-43
2023/07/05 04:48:35;;;;;;;;;;;15.70;99.90;;;;;;4980976;28;19959;-43
2023/07/05 04:51:02;;;;;;;;;;;15.60;99.90;;;;;;4963563;28;19983;-43
2023/07/05 04:53:29;;;;;;;;;;;15.60;99.90;;;;;;4990210;28;21195;-42
2023/07/05 04:55:56;;;;;;;;;;;15.40;99.90;;;;;;4993183;28;20389;-43
2023/07/05 04:58:24;;;;;;;;;;;15.40;99.90;;;;;;4988822;28;19948;-43
2023/07/05 05:00:51;;;;;;;;;;;15.30;99.90;;;;;;4970728;28;19984;-42
2023/07/05 05:03:18;;;;;;;;;;;15.20;99.90;;;;;;4990480;28;19925;-43
2023/07/05 05:05:44;;;;;;;;;;;15.20;99.90;;;;;;4991894;28;19936;-43
2023/07/05 05:08:11;;;;;;;;;;;15.10;99.90;;;;;;4992580;28;19926;-42
2023/07/05 05:10:38;;;;;;;;;;;15.00;99.90;;;;;;4965178;28;20464;-43
2023/07/05 05:13:05;;;;;;;;;;;14.90;99.90;;;;;;4987169;28;19980;-43
2023/07/05 05:15:35;;;;;;;;;;;14.90;99.90;;;;;;4971451;28;20271;-43
2023/07/05 05:18:02;;;;;;;;;;;14.90;99.90;;;;;;4975554;28;19927;-43
2023/07/05 05:20:29;;;;;;;;;;;14.90;99.90;;;;;;4972125;28;19926;-42
2023/07/05 05:22:56;;;;;;;;;;;14.90;99.90;;;;;;4978573;28;20050;-43
2023/07/05 05:25:23;;;;;;;;;;;14.90;99.90;;;;;;4970498;28;19980;-42
2023/07/05 05:27:49;;;;;;;;;;;14.90;99.90;;;;;;4989802;28;19929;-43
2023/07/05 05:30:16;;;;;;;;;;;14.80;99.90;;;;;;4986957;28;20069;-43
2023/07/05 05:32:45;;;;;;;;;;;14.90;99.90;;;;;;4991427;28;19926;-42
2023/07/05 05:35:12;;;;;;;;;;;14.90;99.90;;;;;;4985438;28;19975;-43
2023/07/05 05:37:38;;;;;;;;;;;14.90;99.90;;;;;;4989989;28;19965;-43
2023/07/05 05:40:06;;;;;;;;;;;14.90;99.90;;;;;;4985933;28;19926;-43
2023/07/05 05:42:32;;;;;;;;;;;14.90;99.90;;;;;;5000972;28;19925;-43
2023/07/05 05:44:59;;;;;;;;;;;14.90;99.90;;;;;;4995484;28;19997;-43
2023/07/05 05:47:26;;;;;;;;;;;14.90;99.90;;;;;;4990314;28;19932;-44
2023/07/05 05:49:54;;;;;;;;;;;14.90;99.90;;;;;;4991483;28;20400;-43
2023/07/05 05:52:20;;;;;;;;;;;14.90;99.90;;;;;;4991631;28;20448;-43
2023/07/05 05:54:47;;;;;;;;;;;14.90;99.90;;;;;;5003575;28;20005;-44
2023/07/05 05:57:14;;;;;;;;;;;14.90;99.90;;;;;;4974292;28;19926;-43
2023/07/05 05:59:40;;;;;;;;;;;14.90;99.90;;;;;;4974000;28;19980;-43
2023/07/05 06:02:08;;;;;;;;;;;14.90;99.90;;;;;;4988517;28;19937;-43
2023/07/05 06:04:35;;;;;;;;;;;14.90;99.90;;;;;;4995429;28;19937;-43
2023/07/05 06:07:03;;;;;;;;;;;14.90;99.90;;;;;;4977936;28;19995;-43
2023/07/05 06:09:30;;;;;;;;;;;14.90;99.90;;;;;;4990973;28;19997;-44
2023/07/05 06:11:57;;;;;;;;;;;14.90;99.90;;;;;;4964776;28;20148;-44
2023/07/05 06:14:24;;;;;;;;;;;14.90;99.90;;;;;;4969167;28;20444;-43
2023/07/05 06:16:51;;;;;;;;;;;15.00;99.90;;;;;;4976738;28;19932;-43
2023/07/05 06:19:17;;;;;;;;;;;15.00;99.90;;;;;;4959093;28;19926;-45
2023/07/05 06:21:44;;;;;;;;;;;15.10;99.90;;;;;;4987875;28;20318;-43
2023/07/05 06:24:12;;;;;;;;;;;15.30;99.90;;;;;;4957781;28;19927;-43
2023/07/05 06:26:38;;;;;;;;;;;15.40;99.90;;;;;;4968861;28;19973;-44
2023/07/05 06:29:06;;;;;;;;;;;15.60;99.90;;;;;;4991399;28;19972;-43
2023/07/05 06:31:33;;;;;;;;;;;15.60;99.90;;;;;;4995204;28;19968;-44
2023/07/05 06:33:59;;;;;;;;;;;15.60;99.90;;;;;;4975050;28;19932;-43
2023/07/05 06:36:26;;;;;;;;;;;15.60;99.90;;;;;;4984611;28;19973;-44
2023/07/05 06:38:53;;;;;;;;;;;15.60;99.90;;;;;;4975572;28;19961;-43
2023/07/05 06:41:21;;;;;;;;;;;15.60;99.90;;;;;;4988628;28;20024;-44
2023/07/05 06:43:47;;;;;;;;;;;15.60;99.90;;;;;;4977153;28;19973;-43
2023/07/05 06:46:14;;;;;;;;;;;15.50;99.90;;;;;;4988698;28;19980;-43
2023/07/05 06:48:41;;;;;;;;;;;15.50;99.90;;;;;;4986012;28;20378;-44
2023/07/05 06:51:07;;;;;;;;;;;15.50;99.90;;;;;;4985031;28;20001;-43
2023/07/05 06:53:34;;;;;;;;;;;15.50;99.90;;;;;;4994682;28;20333;-43
2023/07/05 06:56:01;;;;;;;;;;;15.50;99.90;;;;;;4997236;28;19930;-42
2023/07/05 06:58:29;;;;;;;;;;;15.50;99.90;;;;;;4992476;28;20080;-43
2023/07/05 07:00:55;;;;;;;;;;;15.40;99.90;;;;;;4992083;28;19933;-42
2023/07/05 07:03:22;;;;;;;;;;;15.40;99.90;;;;;;4992989;28;20007;-44
2023/07/05 07:05:50;;;;;;;;;;;15.40;99.90;;;;;;4996356;28;20362;-43
2023/07/05 07:08:17;;;;;;;;;;;15.50;99.90;;;;;;4999692;28;19969;-43
2023/07/05 07:10:43;;;;;;;;;;;15.50;99.90;;;;;;4987454;28;19996;-44
2023/07/05 07:13:10;;;;;;;;;;;15.50;99.90;;;;;;4994102;28;19926;-43
2023/07/05 07:15:38;;;;;;;;;;;15.50;99.90;;;;;;4976064;28;20382;-43
2023/07/05 07:18:05;;;;;;;;;;;15.60;99.90;;;;;;4976819;28;19978;-44
2023/07/05 07:20:32;;;;;;;;;;;15.60;99.90;;;;;;4977555;28;19980;-43
2023/07/05 07:22:59;;;;;;;;;;;15.50;99.90;;;;;;4991470;28;19938;-44
2023/07/05 07:25:25;;;;;;;;;;;15.50;99.90;;;;;;4975144;28;19948;-42
2023/07/05 07:27:52;;;;;;;;;;;15.40;99.90;;;;;;4977094;28;19929;-44
2023/07/05 07:30:19;;;;;;;;;;;15.30;99.90;;;;;;4977564;28;19936;-43
2023/07/05 07:32:47;;;;;;;;;;;15.10;99.90;;;;;;4993612;28;19980;-43
2023/07/05 07:35:14;;;;;;;;;;;15.00;99.90;;;;;;4968805;28;19933;-43
2023/07/05 07:37:40;;;;;;;;;;;15.00;99.90;;;;;;4992675;28;19929;-42
2023/07/05 07:40:08;;;;;;;;;;;14.90;99.90;;;;;;4992146;28;19933;-42
2023/07/05 07:42:34;;;;;;;;;;;14.70;99.90;;;;;;4991599;28;20297;-42
2023/07/05 07:45:01;;;;;;;;;;;14.50;99.90;;;;;;4974630;28;19925;-43
2023/07/05 07:47:28;;;;;;;;;;;14.30;99.90;;;;;;4991121;28;20358;-43
2023/07/05 07:49:56;;;;;;;;;;;14.10;99.90;;;;;;4969311;28;19933;-44
2023/07/05 07:52:22;;;;;;;;;;;14.00;99.90;;;;;;4988471;28;20342;-43
2023/07/05 07:54:49;;;;;;;;;;;13.90;99.90;;;;;;4991772;28;19980;-43
2023/07/05 07:57:16;;;;;;;;;;;13.70;99.90;;;;;;4976208;28;19938;-43
2023/07/05 07:59:42;;;;;;;;;;;13.70;99.90;;;;;;4993145;28;19926;-43
2023/07/05 08:02:12;;;;;;;;;;;13.60;99.90;;;;;;4975114;28;19930;-42
2023/07/05 08:04:43;;;;;;;;;;;13.50;99.90;;;;;;4967221;28;19930;-42
2023/07/05 08:07:11;;;;;;;;;;;13.40;99.90;;;;;;4987397;28;19973;-44
2023/07/05 08:09:38;;;;;;;;;;;13.40;99.90;;;;;;4989907;28;19925;-43
2023/07/05 08:12:05;;;;;;;;;;;13.30;99.90;;;;;;4978001;28;19926;-43
2023/07/05 08:14:32;;;;;;;;;;;13.20;99.90;;;;;;4978536;28;19933;-44
2023/07/05 08:16:58;;;;;;;;;;;13.20;99.90;;;;;;4960257;28;19933;-44
2023/07/05 08:19:25;;;;;;;;;;;13.10;99.90;;;;;;4964944;28;20394;-43
2023/07/05 08:21:52;;;;;;;;;;;13.10;99.90;;;;;;4992233;28;20382;-43
2023/07/05 08:24:20;;;;;;;;;;;13.00;99.90;;;;;;4986959;28;19953;-43
2023/07/05 08:26:47;;;;;;;;;;;13.00;99.90;;;;;;4983828;28;19926;-43
2023/07/05 08:29:14;;;;;;;;;;;13.00;99.90;;;;;;4970534;28;20374;-43
2023/07/05 08:31:41;;;;;;;;;;;13.00;99.90;;;;;;4974518;28;20389;-44
2023/07/05 08:34:08;;;;;;;;;;;13.00;99.90;;;;;;4992022;28;19932;-43
2023/07/05 08:36:35;;;;;;;;;;;13.00;99.90;;;;;;4975396;28;19926;-43
2023/07/05 08:39:05;;;;;;;;;;;12.90;99.90;;;;;;4985898;28;20306;-43
2023/07/05 08:41:38;;;;;;;;;;;12.90;99.90;;;;;;4989272;28;20362;-43
2023/07/05 08:44:06;;;;;;;;;;;12.90;99.90;;;;;;4990559;28;19929;-43
2023/07/05 08:46:32;;;;;;;;;;;12.80;99.90;;;;;;4991163;28;20393;-44
2023/07/05 08:49:01;;;;;;;;;;;12.80;99.90;;;;;;4986981;28;20320;-43
2023/07/05 08:51:27;;;;;;;;;;;12.70;99.90;;;;;;4993210;28;19976;-43
2023/07/05 08:53:55;;;;;;;;;;;12.70;99.90;;;;;;4992319;28;19976;-43
2023/07/05 08:56:23;;;;;;;;;;;12.70;99.90;;;;;;4992393;28;19926;-43
2023/07/05 08:58:56;;;;;;;;;;;12.70;99.90;;;;;;4992105;28;19926;-43
2023/07/05 09:01:24;;;;;;;;;;;12.70;99.90;;;;;;4993210;28;19926;-42
2023/07/05 09:03:51;;;;;;;;;;;12.70;99.90;;;;;;4986783;28;19926;-43
2023/07/05 09:06:21;;;;;;;;;;;12.70;99.90;;;;;;4992862;28;19932;-43
2023/07/05 09:08:53;;;;;;;;;;;12.70;99.90;;;;;;4992904;28;19929;-43
2023/07/05 09:11:22;;;;;;;;;;;12.70;99.90;;;;;;4991880;28;20384;-43
2023/07/05 09:13:49;;;;;;;;;;;12.70;99.90;;;;;;4993077;28;19977;-43
2023/07/05 09:16:24;;;;;;;;;;;12.70;99.90;;;;;;4992948;28;19933;-43
2023/07/05 09:18:54;;;;;;;;;;;12.80;99.90;;;;;;4988876;28;19930;-42
2023/07/05 09:21:22;;;;;;;;;;;12.80;99.90;;;;;;4978501;28;20042;-43
2023/07/05 09:23:49;;;;;;;;;;;12.90;99.90;;;;;;4991614;28;19984;-43
2023/07/05 09:26:18;;;;;;;;;;;12.80;99.90;;;;;;4975670;28;19961;-44
2023/07/05 09:28:46;;;;;;;;;;;12.90;99.90;;;;;;4992639;28;20320;-42
2023/07/05 09:31:13;;;;;;;;;;;13.00;99.90;;;;;;4978282;28;19925;-44
2023/07/05 09:33:42;;;;;;;;;;;12.90;99.90;;;;;;4991801;28;20353;-43
2023/07/05 09:36:10;;;;;;;;;;;13.00;99.90;;;;;;4992278;28;19933;-43
2023/07/05 09:38:37;;;;;;;;;;;13.00;99.90;;;;;;4996077;28;19937;-44
2023/07/05 09:41:05;;;;;;;;;;;13.00;99.90;;;;;;4996185;28;19926;-44
2023/07/05 09:43:32;;;;;;;;;;;13.10;99.90;;;;;;4990735;28;20405;-43
2023/07/05 09:45:59;;;;;;;;;;;13.10;99.90;;;;;;4995834;28;19933;-44
2023/07/05 09:48:25;;;;;;;;;;;13.10;99.90;;;;;;4995432;28;19937;-43
2023/07/05 09:50:53;;;;;;;;;;;13.20;99.90;;;;;;4976887;28;19981;-43
2023/07/05 09:53:35;;;;;;;;;;;13.20;99.90;;;;;;4992852;28;19969;-42
2023/07/05 09:56:03;;;;;;;;;;;13.20;99.90;;;;;;4995346;28;19969;-42
2023/07/05 09:58:29;;;;;;;;;;;13.20;99.90;;;;;;4994588;28;19936;-42
2023/07/05 10:00:56;;;;;;;;;;;13.20;99.90;;;;;;4994501;28;19926;-43
2023/07/05 10:03:23;;;;;;;;;;;13.20;99.90;;;;;;4994973;28;19973;-43
2023/07/05 10:05:54;;;;;;;;;;;13.30;99.90;;;;;;4994787;28;19930;-42
2023/07/05 10:08:21;;;;;;;;;;;13.30;99.90;;;;;;4996395;28;19933;-41
2023/07/05 10:10:48;;;;;;;;;;;13.40;99.90;;;;;;4995638;28;19933;-43
2023/07/05 10:13:15;;;;;;;;;;;13.40;99.90;;;;;;4996024;28;19973;-43
2023/07/05 10:15:42;;;;;;;;;;;13.40;99.90;;;;;;4995183;28;20332;-43
2023/07/05 10:18:10;;;;;;;;;;;13.50;99.90;;;;;;4994352;28;19925;-42
2023/07/05 10:20:38;;;;;;;;;;;13.60;99.90;;;;;;4962385;28;20333;-42
2023/07/05 10:23:07;;;;;;;;;;;13.60;99.90;;;;;;4978868;28;19926;-43
2023/07/05 10:25:34;;;;;;;;;;;13.70;99.90;;;;;;4989518;28;19973;-43
2023/07/05 10:28:01;;;;;;;;;;;13.70;99.90;;;;;;4975730;28;20432;-43
2023/07/05 10:30:29;;;;;;;;;;;13.70;99.90;;;;;;4978738;28;20334;-42
2023/07/05 10:33:09;;;;;;;;;;;13.70;99.90;;;;;;4995725;28;19926;-42
2023/07/05 10:35:40;;;;;;;;;;;13.70;99.90;;;;;;4977760;28;19992;-43
2023/07/05 10:38:11;;;;;;;;;;;13.70;99.90;;;;;;4979978;28;19953;-42
2023/07/05 10:40:38;;;;;;;;;;;13.80;99.90;;;;;;4976436;28;20000;-43
2023/07/05 10:43:05;;;;;;;;;;;13.80;99.90;;;;;;5002133;28;20456;-43
2023/07/05 10:45:34;;;;;;;;;;;13.80;99.90;;;;;;5014106;28;19925;-43
2023/07/05 10:48:01;;;;;;;;;;;13.90;99.90;;;;;;5013912;28;20381;-42
2023/07/05 10:50:29;;;;;;;;;;;13.90;99.90;;;;;;4983436;28;19925;-43
2023/07/05 10:52:56;;;;;;;;;;;14.00;99.90;;;;;;4991411;28;19981;-43
2023/07/05 10:55:36;;;;;;;;;;;14.00;99.90;;;;;;4988097;28;19926;-43
2023/07/05 10:58:04;;;;;;;;;;;14.10;99.90;;;;;;4994281;28;19953;-43
2023/07/05 11:00:37;;;;;;;;;;;14.20;99.90;;;;;;4994315;28;19926;-43
2023/07/05 11:03:05;;;;;;;;;;;14.30;99.90;;;;;;4977706;28;19973;-44
2023/07/05 11:05:33;;;;;;;;;;;14.30;99.90;;;;;;4995234;28;20008;-44
2023/07/05 11:08:01;;;;;;;;;;;14.40;99.90;;;;;;4994969;28;19999;-43
2023/07/05 11:10:29;;;;;;;;;;;14.50;99.90;;;;;;4976176;28;20035;-43
2023/07/05 11:12:56;;;;;;;;;;;14.60;99.90;;;;;;4976042;28;19953;-43
2023/07/05 11:15:23;;;;;;;;;;;14.60;99.90;;;;;;4960193;28;19926;-42
2023/07/05 11:17:50;;;;;;;;;;;14.60;99.90;;;;;;4975323;28;20401;-43
2023/07/05 11:20:32;;;;;;;;;;;14.50;99.90;;;;;;4975410;28;19930;-43
2023/07/05 11:22:58;;;;;;;;;;;14.40;99.90;;;;;;4977326;28;20350;-42
2023/07/05 11:25:46;;;;;;;;;;;14.30;99.90;;;;;;4977600;28;19972;-43
2023/07/05 11:28:28;;;;;;;;;;;14.10;99.90;;;;;;4977040;28;19926;-43
2023/07/05 11:30:56;;;;;;;;;;;14.00;99.90;;;;;;4994912;28;19925;-43
2023/07/05 11:33:23;;;;;;;;;;;13.90;99.90;;;;;;4989469;28;20004;-44
2023/07/05 11:35:51;;;;;;;;;;;13.80;99.90;;;;;;4991606;28;19926;-42
2023/07/05 11:38:36;;;;;;;;;;;13.70;99.90;;;;;;4993568;28;19933;-43
2023/07/05 11:41:05;;;;;;;;;;;13.60;99.90;;;;;;4994454;28;19949;-43
2023/07/05 11:43:36;;;;;;;;;;;13.50;99.90;;;;;;4988706;28;20278;-43
2023/07/05 11:46:04;;;;;;;;;;;13.50;99.90;;;;;;4983151;28;19926;-43
2023/07/05 11:48:43;;;;;;;;;;;13.40;99.90;;;;;;4990730;28;19929;-43
2023/07/05 11:51:11;;;;;;;;;;;13.30;99.90;;;;;;4991221;28;19926;-43
2023/07/05 11:53:38;;;;;;;;;;;13.30;99.90;;;;;;4983138;28;19926;-43
2023/07/05 11:56:04;;;;;;;;;;;13.30;99.90;;;;;;4993851;28;20378;-43
2023/07/05 11:58:31;;;;;;;;;;;13.20;99.90;;;;;;4993494;28;19932;-43
2023/07/05 12:00:58;;;;;;;;;;;13.20;99.90;;;;;;4991101;28;19926;-43
2023/07/05 12:03:28;;;;;;;;;;;13.20;99.90;;;;;;4993171;28;19925;-42
2023/07/05 12:05:54;;;;;;;;;;;13.20;99.90;;;;;;4976837;28;20032;-42
2023/07/05 12:08:23;;;;;;;;;;;13.20;99.90;;;;;;4994044;28;19926;-43
2023/07/05 12:10:51;;;;;;;;;;;13.30;99.90;;;;;;4989633;28;19926;-43
2023/07/05 12:13:19;;;;;;;;;;;13.30;99.90;;;;;;4991750;28;19980;-43
2023/07/05 12:15:46;;;;;;;;;;;13.30;99.90;;;;;;5001917;28;19980;-43
2023/07/05 12:18:13;;;;;;;;;;;13.40;99.90;;;;;;4992564;28;20366;-43
2023/07/05 12:20:42;;;;;;;;;;;13.40;99.90;;;;;;4992921;28;19926;-43
2023/07/05 12:23:10;;;;;;;;;;;13.50;99.90;;;;;;4973804;28;20366;-43
2023/07/05 12:25:37;;;;;;;;;;;13.50;99.90;;;;;;4973474;28;19934;-42
2023/07/05 12:28:04;;;;;;;;;;;13.60;99.90;;;;;;4988668;28;20383;-42
2023/07/05 12:30:31;;;;;;;;;;;13.60;99.90;;;;;;4984515;28;19992;-43
2023/07/05 12:32:58;;;;;;;;;;;13.60;99.90;;;;;;4980663;28;19932;-43
2023/07/05 12:35:25;;;;;;;;;;;13.70;99.90;;;;;;4992694;28;19925;-43
2023/07/05 12:37:54;;;;;;;;;;;13.80;99.90;;;;;;4977590;28;20430;-43
2023/07/05 12:40:25;;;;;;;;;;;13.80;99.90;;;;;;4989617;28;19989;-43
2023/07/05 12:42:53;;;;;;;;;;;13.90;99.90;;;;;;4957193;28;20430;-43
2023/07/05 12:45:21;;;;;;;;;;;14.00;99.90;;;;;;4988170;28;19926;-43
2023/07/05 12:47:49;;;;;;;;;;;14.00;99.90;;;;;;4988464;28;20433;-43
2023/07/05 12:50:19;;;;;;;;;;;14.10;99.90;;;;;;4989428;28;19929;-43
2023/07/05 12:52:47;;;;;;;;;;;14.20;99.90;;;;;;4975624;28;19926;-43
2023/07/05 12:55:25;;;;;;;;;;;14.20;99.90;;;;;;4988066;28;20008;-43
2023/07/05 12:57:54;;;;;;;;;;;14.20;99.90;;;;;;4982362;28;19934;-43
2023/07/05 13:00:20;;;;;;;;;;;14.20;99.90;;;;;;4980040;28;19973;-43
2023/07/05 13:02:53;;;;;;;;;;;14.20;99.90;;;;;;4988826;28;20401;-43
2023/07/05 13:05:20;;;;;;;;;;;14.10;99.90;;;;;;4967056;28;20385;-44
2023/07/05 13:07:51;;;;;;;;;;;14.20;99.90;;;;;;4990775;28;19932;-43
2023/07/05 13:10:18;;;;;;;;;;;14.20;99.90;;;;;;4988978;28;19933;-43
2023/07/05 13:12:48;;;;;;;;;;;14.20;99.90;;;;;;4992248;28;19965;-43
2023/07/05 13:15:15;;;;;;;;;;;14.30;99.90;;;;;;4991458;28;19926;-43
2023/07/05 13:17:42;;;;;;;;;;;14.30;99.90;;;;;;4990406;28;19932;-44
2023/07/05 13:20:13;;;;;;;;;;;14.40;99.90;;;;;;4990668;28;19926;-44
2023/07/05 13:22:42;;;;;;;;;;;14.40;99.90;;;;;;4975889;28;19949;-43
2023/07/05 13:25:23;;;;;;;;;;;14.50;99.90;;;;;;4964263;28;20433;-44
2023/07/05 13:27:52;;;;;;;;;;;14.50;99.90;;;;;;4985805;28;19926;-44
2023/07/05 13:30:19;;;;;;;;;;;14.50;99.90;;;;;;4990538;28;20014;-43
2023/07/05 13:32:47;;;;;;;;;;;14.50;99.90;;;;;;4985095;28;19925;-43
2023/07/05 13:35:13;;;;;;;;;;;14.50;99.90;;;;;;4974282;28;19961;-44
2023/07/05 13:37:40;;;;;;;;;;;14.60;99.90;;;;;;4976061;28;20369;-44
2023/07/05 13:40:09;;;;;;;;;;;14.60;99.90;;;;;;4971362;28;19934;-44
2023/07/05 13:42:35;;;;;;;;;;;14.60;99.90;;;;;;4991636;28;19958;-43
2023/07/05 13:45:04;;;;;;;;;;;14.60;99.90;;;;;;4987827;28;19930;-43
2023/07/05 13:47:31;;;;;;;;;;;14.60;99.90;;;;;;4970896;28;20009;-43
2023/07/05 13:49:57;;;;;;;;;;;14.60;99.90;;;;;;4968747;28;19933;-43
2023/07/05 13:52:24;;;;;;;;;;;14.60;99.90;;;;;;4979717;28;19926;-43
2023/07/05 13:54:51;;;;;;;;;;;14.60;99.90;;;;;;4965736;28;19925;-43
2023/07/05 13:57:18;;;;;;;;;;;14.60;99.90;;;;;;4970410;28;20306;-43
2023/07/05 13:59:44;;;;;;;;;;;14.50;99.90;;;;;;4984712;28;20439;-43
2023/07/05 14:02:26;;;;;;;;;;;14.50;99.90;;;;;;4987861;28;19926;-43
2023/07/05 14:04:53;;;;;;;;;;;14.40;99.90;;;;;;4990676;28;19934;-43
2023/07/05 14:07:20;;;;;;;;;;;14.50;99.90;;;;;;4980613;28;19925;-43
2023/07/05 14:09:47;;;;;;;;;;;14.50;99.90;;;;;;4982130;28;19926;-43
2023/07/05 14:12:15;;;;;;;;;;;14.60;99.90;;;;;;4983251;28;19925;-43
2023/07/05 14:14:41;;;;;;;;;;;14.70;99.90;;;;;;4990831;28;19925;-43
2023/07/05 14:17:10;;;;;;;;;;;14.80;99.90;;;;;;4991734;28;19925;-43
2023/07/05 14:19:38;;;;;;;;;;;14.90;99.90;;;;;;4990911;28;19932;-43